sensor_id;sensor_type;location;lat;lon;timestamp;temperature;humidity
51863;DHT22;37900;52.996;6.278;2023-04-06T00:01:37;16.30;73.50
51863;DHT22;37900;52.996;6.278;2023-04-06T00:04:03;16.30;73.50
51863;DHT22;37900;52.996;6.278;2023-04-06T00:06:28;16.30;73.40
51863;DHT22;37900;52.996;6.278;2023-04-06T00:08:55;16.20;73.30
51863;DHT22;37900;52.996;6.278;2023-04-06T00:11:21;16.20;73.30
51863;DHT22;37900;52.996;6.278;2023-04-06T00:13:47;16.20;73.30
51863;DHT22;37900;52.996;6.278;2023-04-06T00:16:13;16.20;73.30
51863;DHT22;37900;52.996;6.278;2023-04-06T00:18:39;16.20;73.20
51863;DHT22;37900;52.996;6.278;2023-04-06T00:21:04;16.20;73.20
51863;DHT22;37900;52.996;6.278;2023-04-06T00:23:30;16.20;73.20
51863;DHT22;37900;52.996;6.278;2023-04-06T00:25:56;16.20;73.10
51863;DHT22;37900;52.996;6.278;2023-04-06T00:28:22;16.20;73.10
51863;DHT22;37900;52.996;6.278;2023-04-06T00:30:51;16.20;73.10
51863;DHT22;37900;52.996;6.278;2023-04-06T00:33:21;16.20;73.00
51863;DHT22;37900;52.996;6.278;2023-04-06T00:35:47;16.20;73.00
51863;DHT22;37900;52.996;6.278;2023-04-06T00:38:14;16.20;72.90
51863;DHT22;37900;52.996;6.278;2023-04-06T00:40:40;16.20;72.90
51863;DHT22;37900;52.996;6.278;2023-04-06T00:43:06;16.20;72.90
51863;DHT22;37900;52.996;6.278;2023-04-06T00:45:33;16.10;72.80
51863;DHT22;37900;52.996;6.278;2023-04-06T00:47:59;16.10;72.80
51863;DHT22;37900;52.996;6.278;2023-04-06T00:50:24;16.10;72.80
51863;DHT22;37900;52.996;6.278;2023-04-06T00:52:50;16.10;72.70
51863;DHT22;37900;52.996;6.278;2023-04-06T00:55:17;16.10;72.70
51863;DHT22;37900;52.996;6.278;2023-04-06T00:57:43;16.10;72.70
51863;DHT22;37900;52.996;6.278;2023-04-06T01:00:09;16.10;72.60
51863;DHT22;37900;52.996;6.278;2023-04-06T01:02:37;16.10;72.60
51863;DHT22;37900;52.996;6.278;2023-04-06T01:05:03;16.10;72.60
51863;DHT22;37900;52.996;6.278;2023-04-06T01:07:29;16.10;72.50
51863;DHT22;37900;52.996;6.278;2023-04-06T01:09:55;16.10;72.50
51863;DHT22;37900;52.996;6.278;2023-04-06T01:12:20;16.10;72.50
51863;DHT22;37900;52.996;6.278;2023-04-06T01:14:46;16.10;72.50
51863;DHT22;37900;52.996;6.278;2023-04-06T01:17:12;16.10;72.40
51863;DHT22;37900;52.996;6.278;2023-04-06T01:19:38;16.00;72.30
51863;DHT22;37900;52.996;6.278;2023-04-06T01:22:05;16.10;72.40
51863;DHT22;37900;52.996;6.278;2023-04-06T01:24:32;16.00;72.30
51863;DHT22;37900;52.996;6.278;2023-04-06T01:26:57;16.00;72.30
51863;DHT22;37900;52.996;6.278;2023-04-06T01:29:23;16.00;72.20
51863;DHT22;37900;52.996;6.278;2023-04-06T01:31:49;16.00;72.80
51863;DHT22;37900;52.996;6.278;2023-04-06T01:34:15;16.00;72.20
51863;DHT22;37900;52.996;6.278;2023-04-06T01:36:41;16.00;72.10
51863;DHT22;37900;52.996;6.278;2023-04-06T01:39:07;16.00;72.10
51863;DHT22;37900;52.996;6.278;2023-04-06T01:41:33;16.00;72.10
51863;DHT22;37900;52.996;6.278;2023-04-06T01:43:59;16.00;72.00
51863;DHT22;37900;52.996;6.278;2023-04-06T01:46:24;16.00;72.00
51863;DHT22;37900;52.996;6.278;2023-04-06T01:48:50;16.00;72.00
51863;DHT22;37900;52.996;6.278;2023-04-06T01:51:16;15.90;71.90
51863;DHT22;37900;52.996;6.278;2023-04-06T01:53:42;15.90;71.90
51863;DHT22;37900;52.996;6.278;2023-04-06T01:56:08;16.00;71.90
51863;DHT22;37900;52.996;6.278;2023-04-06T01:58:33;15.90;71.80
51863;DHT22;37900;52.996;6.278;2023-04-06T02:00:59;15.90;71.80
51863;DHT22;37900;52.996;6.278;2023-04-06T02:03:25;15.90;71.80
51863;DHT22;37900;52.996;6.278;2023-04-06T02:05:51;15.90;71.80
51863;DHT22;37900;52.996;6.278;2023-04-06T02:08:17;15.90;71.80
51863;DHT22;37900;52.996;6.278;2023-04-06T02:10:45;15.90;71.70
51863;DHT22;37900;52.996;6.278;2023-04-06T02:13:11;15.90;71.70
51863;DHT22;37900;52.996;6.278;2023-04-06T02:15:37;15.90;71.60
51863;DHT22;37900;52.996;6.278;2023-04-06T02:18:02;15.90;71.60
51863;DHT22;37900;52.996;6.278;2023-04-06T02:20:28;15.90;71.70
51863;DHT22;37900;52.996;6.278;2023-04-06T02:22:56;15.90;71.60
51863;DHT22;37900;52.996;6.278;2023-04-06T02:25:22;15.90;71.60
51863;DHT22;37900;52.996;6.278;2023-04-06T02:27:47;15.90;71.60
51863;DHT22;37900;52.996;6.278;2023-04-06T02:30:13;15.90;71.50
51863;DHT22;37900;52.996;6.278;2023-04-06T02:32:39;15.80;71.40
51863;DHT22;37900;52.996;6.278;2023-04-06T02:35:05;15.80;71.40
51863;DHT22;37900;52.996;6.278;2023-04-06T02:37:31;16.00;72.10
51863;DHT22;37900;52.996;6.278;2023-04-06T02:39:56;15.90;71.40
51863;DHT22;37900;52.996;6.278;2023-04-06T02:42:22;15.90;71.40
51863;DHT22;37900;52.996;6.278;2023-04-06T02:44:48;15.80;71.30
51863;DHT22;37900;52.996;6.278;2023-04-06T02:47:13;15.80;71.30
51863;DHT22;37900;52.996;6.278;2023-04-06T02:49:39;15.80;71.90
51863;DHT22;37900;52.996;6.278;2023-04-06T02:52:05;15.80;71.90
51863;DHT22;37900;52.996;6.278;2023-04-06T02:54:31;15.80;71.20
51863;DHT22;37900;52.996;6.278;2023-04-06T02:56:56;15.80;71.20
51863;DHT22;37900;52.996;6.278;2023-04-06T02:59:22;15.80;71.20
51863;DHT22;37900;52.996;6.278;2023-04-06T03:01:48;15.80;71.20
51863;DHT22;37900;52.996;6.278;2023-04-06T03:04:13;15.80;71.20
51863;DHT22;37900;52.996;6.278;2023-04-06T03:06:39;15.80;71.20
51863;DHT22;37900;52.996;6.278;2023-04-06T03:09:06;15.80;71.10
51863;DHT22;37900;52.996;6.278;2023-04-06T03:11:32;15.70;71.10
51863;DHT22;37900;52.996;6.278;2023-04-06T03:13:58;15.70;71.00
51863;DHT22;37900;52.996;6.278;2023-04-06T03:16:24;15.80;71.10
51863;DHT22;37900;52.996;6.278;2023-04-06T03:18:50;15.70;71.00
51863;DHT22;37900;52.996;6.278;2023-04-06T03:21:16;15.70;71.00
51863;DHT22;37900;52.996;6.278;2023-04-06T03:23:42;15.70;70.90
51863;DHT22;37900;52.996;6.278;2023-04-06T03:26:08;15.70;70.90
51863;DHT22;37900;52.996;6.278;2023-04-06T03:28:33;15.70;70.90
51863;DHT22;37900;52.996;6.278;2023-04-06T03:30:59;15.70;70.90
51863;DHT22;37900;52.996;6.278;2023-04-06T03:33:25;15.70;70.80
51863;DHT22;37900;52.996;6.278;2023-04-06T03:35:53;15.70;70.80
51863;DHT22;37900;52.996;6.278;2023-04-06T03:38:19;15.70;70.80
51863;DHT22;37900;52.996;6.278;2023-04-06T03:40:44;15.70;70.80
51863;DHT22;37900;52.996;6.278;2023-04-06T03:43:11;15.70;70.80
51863;DHT22;37900;52.996;6.278;2023-04-06T03:45:36;15.70;70.80
51863;DHT22;37900;52.996;6.278;2023-04-06T03:48:03;15.70;70.80
51863;DHT22;37900;52.996;6.278;2023-04-06T03:50:29;15.70;70.70
51863;DHT22;37900;52.996;6.278;2023-04-06T03:52:54;15.60;70.60
51863;DHT22;37900;52.996;6.278;2023-04-06T03:55:20;15.60;70.60
51863;DHT22;37900;52.996;6.278;2023-04-06T03:57:46;15.60;70.60
51863;DHT22;37900;52.996;6.278;2023-04-06T04:00:12;15.60;70.60
51863;DHT22;37900;52.996;6.278;2023-04-06T04:02:38;15.60;70.60
51863;DHT22;37900;52.996;6.278;2023-04-06T04:05:05;15.60;70.50
51863;DHT22;37900;52.996;6.278;2023-04-06T04:07:31;15.60;70.50
51863;DHT22;37900;52.996;6.278;2023-04-06T04:09:56;15.60;70.50
51863;DHT22;37900;52.996;6.278;2023-04-06T04:12:22;15.60;70.50
51863;DHT22;37900;52.996;6.278;2023-04-06T04:14:48;15.60;70.50
51863;DHT22;37900;52.996;6.278;2023-04-06T04:17:13;15.60;70.50
51863;DHT22;37900;52.996;6.278;2023-04-06T04:19:39;15.60;70.50
51863;DHT22;37900;52.996;6.278;2023-04-06T04:22:05;15.60;70.40
51863;DHT22;37900;52.996;6.278;2023-04-06T04:24:32;15.60;70.40
51863;DHT22;37900;52.996;6.278;2023-04-06T04:26:59;15.60;70.50
51863;DHT22;37900;52.996;6.278;2023-04-06T04:29:26;15.70;70.50
51863;DHT22;37900;52.996;6.278;2023-04-06T04:31:52;15.70;70.50
51863;DHT22;37900;52.996;6.278;2023-04-06T04:34:18;15.70;70.60
51863;DHT22;37900;52.996;6.278;2023-04-06T04:36:46;15.70;70.60
51863;DHT22;37900;52.996;6.278;2023-04-06T04:39:12;15.70;70.60
51863;DHT22;37900;52.996;6.278;2023-04-06T04:41:37;15.70;70.60
51863;DHT22;37900;52.996;6.278;2023-04-06T04:44:03;15.60;70.40
51863;DHT22;37900;52.996;6.278;2023-04-06T04:46:29;15.60;70.40
51863;DHT22;37900;52.996;6.278;2023-04-06T04:48:55;15.60;70.40
51863;DHT22;37900;52.996;6.278;2023-04-06T04:51:21;15.60;70.40
51863;DHT22;37900;52.996;6.278;2023-04-06T04:53:46;15.60;70.40
51863;DHT22;37900;52.996;6.278;2023-04-06T04:56:12;15.60;70.40
51863;DHT22;37900;52.996;6.278;2023-04-06T04:58:38;15.60;70.30
51863;DHT22;37900;52.996;6.278;2023-04-06T05:01:04;15.60;70.30
51863;DHT22;37900;52.996;6.278;2023-04-06T05:03:30;15.60;70.30
51863;DHT22;37900;52.996;6.278;2023-04-06T05:05:56;15.60;70.30
51863;DHT22;37900;52.996;6.278;2023-04-06T05:08:22;15.60;70.30
51863;DHT22;37900;52.996;6.278;2023-04-06T05:10:48;15.60;70.20
51863;DHT22;37900;52.996;6.278;2023-04-06T05:13:14;15.50;70.20
51863;DHT22;37900;52.996;6.278;2023-04-06T05:15:40;15.50;70.10
51863;DHT22;37900;52.996;6.278;2023-04-06T05:18:09;15.50;70.20
51863;DHT22;37900;52.996;6.278;2023-04-06T05:20:37;15.50;70.20
51863;DHT22;37900;52.996;6.278;2023-04-06T05:23:03;15.50;70.10
51863;DHT22;37900;52.996;6.278;2023-04-06T05:25:29;15.50;70.10
51863;DHT22;37900;52.996;6.278;2023-04-06T05:27:55;15.50;70.00
51863;DHT22;37900;52.996;6.278;2023-04-06T05:30:20;15.50;70.10
51863;DHT22;37900;52.996;6.278;2023-04-06T05:32:47;15.50;70.00
51863;DHT22;37900;52.996;6.278;2023-04-06T05:35:12;15.50;70.00
51863;DHT22;37900;52.996;6.278;2023-04-06T05:37:42;15.60;70.00
51863;DHT22;37900;52.996;6.278;2023-04-06T05:40:08;15.60;70.00
51863;DHT22;37900;52.996;6.278;2023-04-06T05:42:39;15.60;70.00
51863;DHT22;37900;52.996;6.278;2023-04-06T05:45:09;15.60;70.10
51863;DHT22;37900;52.996;6.278;2023-04-06T05:47:36;15.60;70.10
51863;DHT22;37900;52.996;6.278;2023-04-06T05:50:02;15.60;70.10
51863;DHT22;37900;52.996;6.278;2023-04-06T05:52:28;15.60;70.10
51863;DHT22;37900;52.996;6.278;2023-04-06T05:54:54;15.60;70.20
51863;DHT22;37900;52.996;6.278;2023-04-06T05:57:20;15.60;70.10
51863;DHT22;37900;52.996;6.278;2023-04-06T05:59:46;15.60;70.20
51863;DHT22;37900;52.996;6.278;2023-04-06T06:02:11;15.60;70.10
51863;DHT22;37900;52.996;6.278;2023-04-06T06:04:37;15.50;70.10
51863;DHT22;37900;52.996;6.278;2023-04-06T06:07:03;15.50;70.10
51863;DHT22;37900;52.996;6.278;2023-04-06T06:09:29;15.50;70.10
51863;DHT22;37900;52.996;6.278;2023-04-06T06:11:54;15.60;70.20
51863;DHT22;37900;52.996;6.278;2023-04-06T06:14:20;15.50;70.10
51863;DHT22;37900;52.996;6.278;2023-04-06T06:16:47;15.50;70.10
51863;DHT22;37900;52.996;6.278;2023-04-06T06:19:13;15.50;70.10
51863;DHT22;37900;52.996;6.278;2023-04-06T06:21:39;15.50;70.10
51863;DHT22;37900;52.996;6.278;2023-04-06T06:24:05;15.50;70.10
51863;DHT22;37900;52.996;6.278;2023-04-06T06:26:31;15.50;70.20
51863;DHT22;37900;52.996;6.278;2023-04-06T06:28:57;15.50;70.20
51863;DHT22;37900;52.996;6.278;2023-04-06T06:31:22;15.50;70.20
51863;DHT22;37900;52.996;6.278;2023-04-06T06:33:51;15.50;70.20
51863;DHT22;37900;52.996;6.278;2023-04-06T06:36:17;15.50;70.20
51863;DHT22;37900;52.996;6.278;2023-04-06T06:38:44;15.60;70.30
51863;DHT22;37900;52.996;6.278;2023-04-06T06:41:10;15.50;70.20
51863;DHT22;37900;52.996;6.278;2023-04-06T06:43:36;15.50;70.20
51863;DHT22;37900;52.996;6.278;2023-04-06T06:46:02;15.50;70.20
51863;DHT22;37900;52.996;6.278;2023-04-06T06:48:28;15.50;70.30
51863;DHT22;37900;52.996;6.278;2023-04-06T06:50:54;15.50;70.30
51863;DHT22;37900;52.996;6.278;2023-04-06T06:53:20;15.50;70.30
51863;DHT22;37900;52.996;6.278;2023-04-06T06:55:45;15.50;70.40
51863;DHT22;37900;52.996;6.278;2023-04-06T06:58:11;15.50;70.50
51863;DHT22;37900;52.996;6.278;2023-04-06T07:00:37;15.50;71.00
51863;DHT22;37900;52.996;6.278;2023-04-06T07:03:03;15.50;71.30
51863;DHT22;37900;52.996;6.278;2023-04-06T07:05:29;15.60;71.60
51863;DHT22;37900;52.996;6.278;2023-04-06T07:07:55;15.60;71.70
51863;DHT22;37900;52.996;6.278;2023-04-06T07:10:21;15.60;71.80
51863;DHT22;37900;52.996;6.278;2023-04-06T07:12:47;15.50;71.80
51863;DHT22;37900;52.996;6.278;2023-04-06T07:15:13;15.60;71.90
51863;DHT22;37900;52.996;6.278;2023-04-06T07:17:38;15.60;71.90
51863;DHT22;37900;52.996;6.278;2023-04-06T07:20:07;15.60;72.00
51863;DHT22;37900;52.996;6.278;2023-04-06T07:22:33;15.60;71.90
51863;DHT22;37900;52.996;6.278;2023-04-06T07:24:58;15.60;72.00
51863;DHT22;37900;52.996;6.278;2023-04-06T07:27:24;15.60;71.90
51863;DHT22;37900;52.996;6.278;2023-04-06T07:29:50;15.60;72.00
51863;DHT22;37900;52.996;6.278;2023-04-06T07:32:16;15.60;72.00
51863;DHT22;37900;52.996;6.278;2023-04-06T07:34:41;15.60;72.10
51863;DHT22;37900;52.996;6.278;2023-04-06T07:37:07;15.60;72.10
51863;DHT22;37900;52.996;6.278;2023-04-06T07:39:34;15.60;72.10
51863;DHT22;37900;52.996;6.278;2023-04-06T07:42:00;15.60;72.10
51863;DHT22;37900;52.996;6.278;2023-04-06T07:44:26;15.60;72.20
51863;DHT22;37900;52.996;6.278;2023-04-06T07:46:51;15.60;72.20
51863;DHT22;37900;52.996;6.278;2023-04-06T07:49:17;15.60;72.30
51863;DHT22;37900;52.996;6.278;2023-04-06T07:51:43;15.60;72.30
51863;DHT22;37900;52.996;6.278;2023-04-06T07:54:09;15.60;72.30
51863;DHT22;37900;52.996;6.278;2023-04-06T07:56:34;15.70;72.50
51863;DHT22;37900;52.996;6.278;2023-04-06T07:59:00;15.70;72.50
51863;DHT22;37900;52.996;6.278;2023-04-06T08:01:27;15.70;72.60
51863;DHT22;37900;52.996;6.278;2023-04-06T08:03:54;15.70;72.60
51863;DHT22;37900;52.996;6.278;2023-04-06T08:06:21;15.70;72.60
51863;DHT22;37900;52.996;6.278;2023-04-06T08:08:47;15.70;72.70
51863;DHT22;37900;52.996;6.278;2023-04-06T08:11:12;15.70;72.70
51863;DHT22;37900;52.996;6.278;2023-04-06T08:13:38;15.70;72.70
51863;DHT22;37900;52.996;6.278;2023-04-06T08:16:04;15.70;72.80
51863;DHT22;37900;52.996;6.278;2023-04-06T08:18:30;15.70;73.40
51863;DHT22;37900;52.996;6.278;2023-04-06T08:20:56;15.70;72.80
51863;DHT22;37900;52.996;6.278;2023-04-06T08:23:22;15.70;72.80
51863;DHT22;37900;52.996;6.278;2023-04-06T08:25:51;15.70;72.90
51863;DHT22;37900;52.996;6.278;2023-04-06T08:28:20;15.80;73.00
51863;DHT22;37900;52.996;6.278;2023-04-06T08:30:46;15.80;73.00
51863;DHT22;37900;52.996;6.278;2023-04-06T08:33:12;15.80;73.00
51863;DHT22;37900;52.996;6.278;2023-04-06T08:35:37;15.80;73.00
51863;DHT22;37900;52.996;6.278;2023-04-06T08:38:03;15.80;73.10
51863;DHT22;37900;52.996;6.278;2023-04-06T08:40:29;15.80;73.10
51863;DHT22;37900;52.996;6.278;2023-04-06T08:42:56;15.80;73.10
51863;DHT22;37900;52.996;6.278;2023-04-06T08:45:22;15.80;73.10
51863;DHT22;37900;52.996;6.278;2023-04-06T08:47:50;15.80;73.30
51863;DHT22;37900;52.996;6.278;2023-04-06T08:50:17;15.70;73.20
51863;DHT22;37900;52.996;6.278;2023-04-06T08:52:43;15.80;73.20
51863;DHT22;37900;52.996;6.278;2023-04-06T08:55:10;15.80;73.40
51863;DHT22;37900;52.996;6.278;2023-04-06T08:57:39;15.80;73.40
51863;DHT22;37900;52.996;6.278;2023-04-06T09:00:09;15.80;73.40
51863;DHT22;37900;52.996;6.278;2023-04-06T09:02:39;15.90;73.50
51863;DHT22;37900;52.996;6.278;2023-04-06T09:05:05;15.80;73.40
51863;DHT22;37900;52.996;6.278;2023-04-06T09:07:32;15.80;73.40
51863;DHT22;37900;52.996;6.278;2023-04-06T09:09:58;15.90;73.60
51863;DHT22;37900;52.996;6.278;2023-04-06T09:12:25;15.90;73.50
51863;DHT22;37900;52.996;6.278;2023-04-06T09:14:52;15.90;73.50
51863;DHT22;37900;52.996;6.278;2023-04-06T09:17:28;15.90;74.20
51863;DHT22;37900;52.996;6.278;2023-04-06T09:19:54;15.90;73.60
51863;DHT22;37900;52.996;6.278;2023-04-06T09:22:21;15.90;73.70
51863;DHT22;37900;52.996;6.278;2023-04-06T09:24:49;15.90;73.70
51863;DHT22;37900;52.996;6.278;2023-04-06T09:27:15;15.90;73.80
51863;DHT22;37900;52.996;6.278;2023-04-06T09:29:42;16.00;73.80
51863;DHT22;37900;52.996;6.278;2023-04-06T09:32:09;16.00;73.90
51863;DHT22;37900;52.996;6.278;2023-04-06T09:34:42;15.90;73.80
51863;DHT22;37900;52.996;6.278;2023-04-06T09:37:15;15.90;73.90
51863;DHT22;37900;52.996;6.278;2023-04-06T09:39:41;16.00;73.90
51863;DHT22;37900;52.996;6.278;2023-04-06T09:42:07;15.90;73.90
51863;DHT22;37900;52.996;6.278;2023-04-06T09:44:33;16.00;74.00
51863;DHT22;37900;52.996;6.278;2023-04-06T09:46:59;16.00;74.00
51863;DHT22;37900;52.996;6.278;2023-04-06T09:49:27;16.00;74.00
51863;DHT22;37900;52.996;6.278;2023-04-06T09:52:02;16.00;74.10
51863;DHT22;37900;52.996;6.278;2023-04-06T09:54:31;16.00;74.10
51863;DHT22;37900;52.996;6.278;2023-04-06T09:59:50;16.00;74.20
51863;DHT22;37900;52.996;6.278;2023-04-06T10:03:23;16.10;74.40
51863;DHT22;37900;52.996;6.278;2023-04-06T10:05:33;16.10;74.50
51863;DHT22;37900;52.996;6.278;2023-04-06T10:08:11;16.10;74.50
51863;DHT22;37900;52.996;6.278;2023-04-06T10:10:37;16.10;74.50
51863;DHT22;37900;52.996;6.278;2023-04-06T10:13:07;16.10;74.60
51863;DHT22;37900;52.996;6.278;2023-04-06T10:15:36;16.10;74.60
51863;DHT22;37900;52.996;6.278;2023-04-06T10:18:03;16.10;74.60
51863;DHT22;37900;52.996;6.278;2023-04-06T10:23:21;16.10;74.60
51863;DHT22;37900;52.996;6.278;2023-04-06T10:25:53;16.10;74.70
51863;DHT22;37900;52.996;6.278;2023-04-06T10:28:20;16.10;74.70
51863;DHT22;37900;52.996;6.278;2023-04-06T10:30:46;16.20;74.80
51863;DHT22;37900;52.996;6.278;2023-04-06T10:33:16;16.20;74.90
51863;DHT22;37900;52.996;6.278;2023-04-06T10:35:42;16.20;75.00
51863;DHT22;37900;52.996;6.278;2023-04-06T10:38:08;16.20;75.00
51863;DHT22;37900;52.996;6.278;2023-04-06T10:40:38;16.20;75.10
51863;DHT22;37900;52.996;6.278;2023-04-06T10:43:12;16.30;75.20
51863;DHT22;37900;52.996;6.278;2023-04-06T10:45:39;16.30;75.20
51863;DHT22;37900;52.996;6.278;2023-04-06T10:48:16;16.40;75.30
51863;DHT22;37900;52.996;6.278;2023-04-06T10:50:44;16.40;75.20
51863;DHT22;37900;52.996;6.278;2023-04-06T10:53:10;16.40;75.10
51863;DHT22;37900;52.996;6.278;2023-04-06T10:55:39;16.40;75.20
51863;DHT22;37900;52.996;6.278;2023-04-06T10:58:07;16.40;75.20
51863;DHT22;37900;52.996;6.278;2023-04-06T11:00:33;16.40;75.30
51863;DHT22;37900;52.996;6.278;2023-04-06T11:02:59;16.40;75.20
51863;DHT22;37900;52.996;6.278;2023-04-06T11:05:26;16.40;75.30
51863;DHT22;37900;52.996;6.278;2023-04-06T11:07:52;16.50;75.30
51863;DHT22;37900;52.996;6.278;2023-04-06T11:10:24;16.40;75.40
51863;DHT22;37900;52.996;6.278;2023-04-06T11:12:54;16.50;75.40
51863;DHT22;37900;52.996;6.278;2023-04-06T11:15:20;16.50;75.50
51863;DHT22;37900;52.996;6.278;2023-04-06T11:17:46;16.50;75.50
51863;DHT22;37900;52.996;6.278;2023-04-06T11:20:12;16.50;75.50
51863;DHT22;37900;52.996;6.278;2023-04-06T11:22:51;16.50;75.50
51863;DHT22;37900;52.996;6.278;2023-04-06T11:25:17;16.50;75.60
51863;DHT22;37900;52.996;6.278;2023-04-06T11:27:45;16.50;75.70
51863;DHT22;37900;52.996;6.278;2023-04-06T11:30:12;16.50;75.60
51863;DHT22;37900;52.996;6.278;2023-04-06T11:32:45;16.60;75.70
51863;DHT22;37900;52.996;6.278;2023-04-06T11:35:19;16.50;75.60
51863;DHT22;37900;52.996;6.278;2023-04-06T11:37:45;16.50;75.70
51863;DHT22;37900;52.996;6.278;2023-04-06T11:40:11;16.50;75.70
51863;DHT22;37900;52.996;6.278;2023-04-06T11:42:37;16.50;75.70
51863;DHT22;37900;52.996;6.278;2023-04-06T11:45:03;16.50;75.70
51863;DHT22;37900;52.996;6.278;2023-04-06T11:47:31;16.60;75.80
51863;DHT22;37900;52.996;6.278;2023-04-06T11:50:09;16.60;75.80
51863;DHT22;37900;52.996;6.278;2023-04-06T11:52:35;16.50;75.80
51863;DHT22;37900;52.996;6.278;2023-04-06T11:55:14;16.60;75.90
51863;DHT22;37900;52.996;6.278;2023-04-06T11:57:42;16.60;76.00
51863;DHT22;37900;52.996;6.278;2023-04-06T12:00:09;16.60;76.00
51863;DHT22;37900;52.996;6.278;2023-04-06T12:02:36;16.60;76.00
51863;DHT22;37900;52.996;6.278;2023-04-06T12:05:03;16.60;76.00
51863;DHT22;37900;52.996;6.278;2023-04-06T12:07:30;16.60;76.00
51863;DHT22;37900;52.996;6.278;2023-04-06T12:09:56;16.60;76.10
51863;DHT22;37900;52.996;6.278;2023-04-06T12:12:22;16.70;76.20
51863;DHT22;37900;52.996;6.278;2023-04-06T12:14:48;16.60;76.20
51863;DHT22;37900;52.996;6.278;2023-04-06T12:17:13;16.60;76.20
51863;DHT22;37900;52.996;6.278;2023-04-06T12:19:39;16.60;76.20
51863;DHT22;37900;52.996;6.278;2023-04-06T12:22:06;16.60;76.20
51863;DHT22;37900;52.996;6.278;2023-04-06T12:24:31;16.60;76.20
51863;DHT22;37900;52.996;6.278;2023-04-06T12:26:57;16.70;76.30
51863;DHT22;37900;52.996;6.278;2023-04-06T12:29:24;16.70;76.30
51863;DHT22;37900;52.996;6.278;2023-04-06T12:31:50;16.70;76.30
51863;DHT22;37900;52.996;6.278;2023-04-06T12:34:16;16.70;76.30
51863;DHT22;37900;52.996;6.278;2023-04-06T12:36:42;16.70;76.40
51863;DHT22;37900;52.996;6.278;2023-04-06T12:39:08;16.70;76.40
51863;DHT22;37900;52.996;6.278;2023-04-06T12:41:34;16.70;76.40
51863;DHT22;37900;52.996;6.278;2023-04-06T12:44:00;16.70;76.40
51863;DHT22;37900;52.996;6.278;2023-04-06T12:46:26;16.70;76.40
51863;DHT22;37900;52.996;6.278;2023-04-06T12:48:52;16.70;76.40
51863;DHT22;37900;52.996;6.278;2023-04-06T12:51:21;16.70;76.40
51863;DHT22;37900;52.996;6.278;2023-04-06T12:53:47;16.70;76.90
51863;DHT22;37900;52.996;6.278;2023-04-06T12:56:15;16.70;76.40
51863;DHT22;37900;52.996;6.278;2023-04-06T12:58:42;16.70;76.50
51863;DHT22;37900;52.996;6.278;2023-04-06T13:01:08;16.70;76.50
51863;DHT22;37900;52.996;6.278;2023-04-06T13:03:35;16.70;76.50
51863;DHT22;37900;52.996;6.278;2023-04-06T13:06:02;16.70;76.50
51863;DHT22;37900;52.996;6.278;2023-04-06T13:08:28;16.70;76.50
51863;DHT22;37900;52.996;6.278;2023-04-06T13:10:54;16.70;76.50
51863;DHT22;37900;52.996;6.278;2023-04-06T13:13:26;16.70;76.50
51863;DHT22;37900;52.996;6.278;2023-04-06T13:15:53;16.70;76.50
51863;DHT22;37900;52.996;6.278;2023-04-06T13:18:19;16.70;76.50
51863;DHT22;37900;52.996;6.278;2023-04-06T13:20:46;16.70;76.50
51863;DHT22;37900;52.996;6.278;2023-04-06T13:23:12;16.70;76.50
51863;DHT22;37900;52.996;6.278;2023-04-06T13:25:38;16.70;76.50
51863;DHT22;37900;52.996;6.278;2023-04-06T13:28:03;16.70;76.40
51863;DHT22;37900;52.996;6.278;2023-04-06T13:30:29;16.70;76.40
51863;DHT22;37900;52.996;6.278;2023-04-06T13:32:55;16.70;76.40
51863;DHT22;37900;52.996;6.278;2023-04-06T13:35:21;16.70;76.40
51863;DHT22;37900;52.996;6.278;2023-04-06T13:37:47;16.70;76.40
51863;DHT22;37900;52.996;6.278;2023-04-06T13:40:14;16.70;76.40
51863;DHT22;37900;52.996;6.278;2023-04-06T13:42:40;16.70;76.40
51863;DHT22;37900;52.996;6.278;2023-04-06T13:45:09;16.70;76.40
51863;DHT22;37900;52.996;6.278;2023-04-06T13:47:35;16.70;76.40
51863;DHT22;37900;52.996;6.278;2023-04-06T13:50:01;16.70;76.40
51863;DHT22;37900;52.996;6.278;2023-04-06T13:52:26;16.70;76.40
51863;DHT22;37900;52.996;6.278;2023-04-06T13:54:52;16.70;76.40
51863;DHT22;37900;52.996;6.278;2023-04-06T13:57:18;16.70;76.40
51863;DHT22;37900;52.996;6.278;2023-04-06T13:59:44;16.70;76.40
51863;DHT22;37900;52.996;6.278;2023-04-06T14:02:10;16.60;76.40
51863;DHT22;37900;52.996;6.278;2023-04-06T14:04:36;16.70;76.50
51863;DHT22;37900;52.996;6.278;2023-04-06T14:07:03;16.70;76.50
51863;DHT22;37900;52.996;6.278;2023-04-06T14:09:32;16.70;76.50
51863;DHT22;37900;52.996;6.278;2023-04-06T14:11:59;16.70;76.60
51863;DHT22;37900;52.996;6.278;2023-04-06T14:14:24;16.70;76.50
51863;DHT22;37900;52.996;6.278;2023-04-06T14:16:54;16.70;76.60
51863;DHT22;37900;52.996;6.278;2023-04-06T14:19:20;16.70;76.60
51863;DHT22;37900;52.996;6.278;2023-04-06T14:21:47;16.70;76.60
51863;DHT22;37900;52.996;6.278;2023-04-06T14:24:14;16.70;76.50
51863;DHT22;37900;52.996;6.278;2023-04-06T14:26:41;16.70;76.50
51863;DHT22;37900;52.996;6.278;2023-04-06T14:29:07;16.70;76.50
51863;DHT22;37900;52.996;6.278;2023-04-06T14:31:33;16.70;76.50
51863;DHT22;37900;52.996;6.278;2023-04-06T14:34:01;16.70;76.40
51863;DHT22;37900;52.996;6.278;2023-04-06T14:36:27;16.70;76.50
51863;DHT22;37900;52.996;6.278;2023-04-06T14:38:57;16.70;76.40
51863;DHT22;37900;52.996;6.278;2023-04-06T14:41:24;16.70;76.40
51863;DHT22;37900;52.996;6.278;2023-04-06T14:43:53;16.70;76.40
51863;DHT22;37900;52.996;6.278;2023-04-06T14:46:18;16.70;76.40
51863;DHT22;37900;52.996;6.278;2023-04-06T14:48:45;16.70;76.40
51863;DHT22;37900;52.996;6.278;2023-04-06T14:51:10;16.70;76.30
51863;DHT22;37900;52.996;6.278;2023-04-06T14:53:37;16.70;76.30
51863;DHT22;37900;52.996;6.278;2023-04-06T14:56:03;16.70;76.30
51863;DHT22;37900;52.996;6.278;2023-04-06T14:58:28;16.70;76.20
51863;DHT22;37900;52.996;6.278;2023-04-06T15:00:59;16.70;76.20
51863;DHT22;37900;52.996;6.278;2023-04-06T15:03:26;16.90;76.30
51863;DHT22;37900;52.996;6.278;2023-04-06T15:05:53;16.70;76.20
51863;DHT22;37900;52.996;6.278;2023-04-06T15:08:18;16.70;76.30
51863;DHT22;37900;52.996;6.278;2023-04-06T15:10:48;16.70;76.20
51863;DHT22;37900;52.996;6.278;2023-04-06T15:13:13;16.70;76.20
51863;DHT22;37900;52.996;6.278;2023-04-06T15:15:40;16.70;76.20
51863;DHT22;37900;52.996;6.278;2023-04-06T15:18:07;16.70;76.20
51863;DHT22;37900;52.996;6.278;2023-04-06T15:20:32;16.70;76.20
51863;DHT22;37900;52.996;6.278;2023-04-06T15:22:58;16.70;76.20
51863;DHT22;37900;52.996;6.278;2023-04-06T15:25:24;16.70;76.10
51863;DHT22;37900;52.996;6.278;2023-04-06T15:27:50;16.70;76.10
51863;DHT22;37900;52.996;6.278;2023-04-06T15:30:16;16.80;76.10
51863;DHT22;37900;52.996;6.278;2023-04-06T15:32:58;16.70;76.10